Tiempo atmosférico en la estación meteorológica de Leciñena, Zaragoza (405 m.)



Fecha
DESCASC
Temp. máxima en grados centígrados (hora)
DESCASC
Temp. mínima en grados centígrados (hora)
DESCASC
Temp. media en grados centígrados
DESCASC
Racha de viento máxima en m/sg (hora)
DESCASC
Velocidad máxima media en intervalos de 10 minutos(hora)
DESCASC
Precipitaciones diarias en mm
DESCASC
Precipitaciones de 00:00 a 06:00 en mm
DESCASC
Precipitaciones de 06:00 a 12:00 en mm
DESCASC
Precipitaciones de 12:00 a 18:00 en mm
DESCASC
Precipitaciones de 18:00 a 24:00 en mm
DESCASC
13-10-2019 26.6 (16:20) 17.6 (07:50) 22.1 13.33 (23:00) 6.67 (22:10) 0 0 0 0 0
12-10-2019 27.9 (16:10) 17.6 (08:10) 22.8 12.22 (16:00) 5.56 (10:20) 0 0 0 0 0
10-10-2019 23.3 (17:30) 7.6 (00:00) 15.4 5.28 (14:20) 3.33 (11:00) 0 0 0 0 0
09-10-2019 24.6 (15:20) 10.8 (00:00) 17.7 11.11 (17:20) 6.39 (17:20) 0 0 0 0 0
08-10-2019 28.7 (16:40) 10 (00:00) 19.4 4.72 (18:40) 2.22 (19:20) 0 0 0 0 0
07-10-2019 25.6 (16:20) 13.1 (00:00) 19.4 12.22 (03:50) 8.61 (00:10) 0 0 0 0 0
06-10-2019 23.7 (16:00) 10 (00:00) 16.9 14.17 (16:20) 9.72 (19:50) 0 0 0 0 0
05-10-2019 26.6 (17:20) 12.3 (06:30) 19.5 6.67 (02:10) 4.17 (05:50) 0 0 0 0 0
04-10-2019 27 (16:00) 10.4 (00:00) 18.7 8.06 (15:40) 4.72 (14:50) 0 0 0 0 0
03-10-2019 25.8 (15:50) 9.2 (00:00) 17.5 12.22 (19:20) 7.5 (18:30) 0 0 0 0 0
02-10-2019 21.4 (15:10) 12.7 (00:00) 17 18.61 (15:40) 13.33 (15:30) 0 0 0 0 0
01-10-2019 28.8 (15:50) 13.1 (00:00) 20.9 9.44 (17:00) 6.67 (17:00) 0 0 0 0 0
30-09-2019 31.2 (16:50) 11.2 (00:00) 21.2 6.39 (19:40) 3.33 (19:50) 0 0 0 0 0
29-09-2019 30.4 (16:20) 14.2 (00:00) 22.3 5.28 (14:30) 2.5 (01:20) 0 0 0 0 0
28-09-2019 29.3 (16:50) 10.4 (00:00) 19.8 7.5 (17:40) 2.78 (19:00) 0 0 0 0 0
27-09-2019 29.3 (15:40) 12.4 (00:00) 20.8 5.56 (18:40) 2.78 (18:40) 0 0 0 0 0
26-09-2019 29 (17:40) 11.5 (00:00) 20.3 5.28 (21:20) 3.06 (20:50) 0 0 0 0 0
25-09-2019 23.9 (16:00) 14.3 (00:00) 19.1 11.39 (14:20) 6.67 (13:40) 0 0 0 0 0
24-09-2019 30.1 (16:50) 12 (00:00) 21.1 8.61 (15:30) 5 (18:20) 0 0 0 0 0
23-09-2019 24.9 (15:10) 10.8 (00:00) 17.8 7.22 (13:50) 3.61 (17:10) 0 0 0 0 0
22-09-2019 24.9 (15:20) 13.3 (00:00) 19.1 10 (17:20) 6.39 (17:40) 0.4 0.2 0 0.2 0
21-09-2019 28.1 (15:30) 17.6 (00:00) 22.9 12.5 (00:30) 6.67 (00:20) 11.2 2.8 0.2 0.2 8
20-09-2019 28.4 (15:50) 18.2 (00:00) 23.3 11.67 (22:00) 6.67 (23:50) 0 0 0 0 0
19-09-2019 30.6 (17:10) 15.8 (00:00) 23.2 8.06 (23:50) 4.72 (22:10) 0 0 0 0 0
18-09-2019 28.6 (13:30) 16 (00:00) 22.3 9.72 (00:10) 5.56 (00:10) 0 0 0 0 0
17-09-2019 31.4 (17:10) 13.7 (00:00) 22.5 6.11 (14:10) 2.78 (16:00) 0 0 0 0 0

Gráficas

Temp. máximas Temp. mínimas Temp. medias Precipitaciones Rachas de viento máximas Velocidades máximas media en intervalos de 10 minutos

Datos horarios

Fecha y hora oficial Temperatura (ºC) Velocidad del viento (km/h) Dirección del viento Racha (km/h) Dirección de racha Precipitación (mm) Presión (hPa) Tendencia (hPa) Humedad (%)
2019-10-16 23:00:00 12.4 2 Sur 8 Sudoeste 0 -- -- 67
2019-10-16 22:00:00 14.7 6 Sudoeste 21 Sur 0 -- -- 59
2019-10-16 21:00:00 17 10 Sur 23 Sur 0 -- -- 51
2019-10-16 20:00:00 16.8 0 Calma 9 Este 0 -- -- 51
2019-10-16 19:00:00 19.5 4 Noroeste 13 Oeste 0 -- -- 44
2019-10-16 18:00:00 21.6 8 Noroeste 14 Noroeste 0 -- -- 38
2019-10-16 17:00:00 22.1 8 Oeste 19 Noroeste 0 -- -- 38
2019-10-16 16:00:00 21.3 6 Norte 19 Noroeste 0 -- -- 40
2019-10-16 15:00:00 20.6 5 Noroeste 18 Noroeste 0 -- -- 42
2019-10-16 14:00:00 20 8 Noroeste 22 Oeste 0 -- -- 45
2019-10-16 13:00:00 19.1 9 Noroeste 21 Noroeste 0 -- -- 47
2019-10-16 12:00:00 17.9 10 Oeste 25 Oeste 0 -- -- 49
2019-10-16 11:00:00 16.5 9 Oeste 16 Sudoeste 0 -- -- 51
2019-10-16 10:00:00 12.6 0 Calma 6 Nordeste 0 -- -- 65
2019-10-16 09:00:00 9.4 4 Sudoeste 6 Sudoeste 0 -- -- 74
2019-10-16 08:00:00 7.7 4 Sur 6 Sudoeste 0 -- -- 81
2019-10-16 07:00:00 8 4 Sur 6 Sur 0 -- -- 81
2019-10-16 06:00:00 9.2 3 Sudoeste 7 Sudoeste 0 -- -- 78
2019-10-16 05:00:00 9.8 0 Calma 4 Sudoeste 0 -- -- 79
2019-10-16 04:00:00 10 3 Sur 5 Oeste 0 -- -- 76
2019-10-16 03:00:00 10 0 Calma 4 Sur 0 -- -- 78
2019-10-16 02:00:00 9.5 3 Sur 6 Sur 0 -- -- 77
2019-10-16 01:00:00 10.1 3 Sur 8 Sudoeste 0 -- -- 72
2019-10-16 00:00:00 8.7 5 Sur 9 Sur 0 -- -- 75
2019-10-15 23:00:00 9.1 4 Sudoeste 9 Sur 0 -- -- 74
2019-10-15 22:00:00 9.4 3 Sur 7 Sudoeste 0 -- -- 75
2019-10-15 21:00:00 10.5 6 Sudoeste 9 Sudoeste 0 -- -- 75
2019-10-15 20:00:00 12.3 0 Calma 7 Nordeste 0 -- -- 64
2019-10-15 19:00:00 15.7 5 Norte 22 Norte 0 -- -- 49
2019-10-15 18:00:00 17.4 12 Norte 27 Norte 0 -- -- 43
2019-10-15 17:00:00 18.1 13 Noroeste 27 Norte 0 -- -- 42
2019-10-15 16:00:00 17.5 15 Norte 27 Norte 0 -- -- 43
2019-10-15 15:00:00 17.5 13 Norte 27 Norte 0 -- -- 46
2019-10-15 14:00:00 16.2 18 Norte 34 Norte 0 -- -- 48
2019-10-15 13:00:00 15.4 19 Norte 30 Norte 0 -- -- 53
2019-10-15 12:00:00 14.2 12 Noroeste 30 Norte 0 -- -- 62
2019-10-15 11:00:00 12.6 19 Norte 31 Norte 0 -- -- 65
2019-10-15 10:00:00 10.9 10 Noroeste 24 Norte 0 -- -- 74
2019-10-15 09:00:00 8.9 12 Norte 24 Norte 0 -- -- 79
2019-10-15 08:00:00 8.7 13 Noroeste 23 Noroeste 0 -- -- 79
2019-10-15 07:00:00 9 9 Norte 18 Norte 0 -- -- 82
2019-10-15 06:00:00 10.1 7 Norte 16 Norte 0 -- -- 83
2019-10-15 05:00:00 10.9 5 Norte 25 Noroeste 0 -- -- 81
2019-10-15 04:00:00 11 12 Noroeste 23 Noroeste 0 -- -- 75
2019-10-15 03:00:00 9.9 6 Norte 19 Oeste 0 -- -- 81
2019-10-15 02:00:00 10.9 14 Noroeste 24 Noroeste 0 -- -- 79
2019-10-15 01:00:00 12 15 Noroeste 27 Noroeste 0 -- -- 75
2019-10-15 00:00:00 11.8 9 Oeste 15 Norte 0 -- -- 81
2019-10-14 23:00:00 12.6 10 Norte 35 Norte 0 -- -- 74
2019-10-14 22:00:00 13.1 13 Norte 40 Norte 0 -- -- 71
2019-10-14 21:00:00 16.2 8 Oeste 15 Oeste 0 -- -- 76
2019-10-14 20:00:00 16.9 3 Sudoeste 9 Sudoeste 0 -- -- 79
2019-10-14 19:00:00 18.2 5 Sur 15 Sur 0 -- -- 75
2019-10-14 18:00:00 18 9 Sur 51 Sudoeste 7 -- -- 78
2019-10-14 17:00:00 20.9 15 Sudeste 54 Sudoeste 0.4 -- -- 77
2019-10-14 16:00:00 22 35 Sur 55 Sur 0.2 -- -- 57
2019-10-14 15:00:00 20 24 Sur 47 Sur 0 -- -- 81
2019-10-14 14:00:00 18.6 9 Sudeste 29 Sur 0.4 -- -- 87
2019-10-14 13:00:00 18.6 8 Sudeste 21 Sur 0.6 -- -- 83
2019-10-14 12:00:00 20.3 17 Sudoeste 30 Sur 0 -- -- 71
2019-10-14 11:00:00 18.3 4 Sudeste 20 Sur 0 -- -- 83
2019-10-14 10:00:00 17.9 6 Este 38 Sur 0 -- -- 84
2019-10-14 09:00:00 17.7 19 Sudeste 55 Sur 0 -- -- 85
2019-10-14 08:00:00 17.8 23 Sudeste 60 Sur 0 -- -- 83
2019-10-14 07:00:00 17.3 22 Sudeste 54 Sur 0 -- -- 85
2019-10-14 06:00:00 17.1 12 Sudeste 42 Sudeste 0 -- -- 86
2019-10-14 05:00:00 17.1 10 Sudeste 41 Sur 0 -- -- 87
2019-10-14 04:00:00 17.2 12 Sudeste 39 Sudeste 0 -- -- 87
2019-10-14 03:00:00 17.5 9 Sudeste 31 Sur 0 -- -- 86
2019-10-14 02:00:00 17.7 8 Sudeste 35 Sudeste 0 -- -- 85
2019-10-14 01:00:00 18.4 17 Sur 40 Sudeste 0 -- -- 83
2019-10-14 00:00:00 18.9 11 Sudeste 44 Sur 0 -- -- 78
2019-10-13 23:00:00 19.6 22 Sur 48 Sur 0 -- -- 76
2019-10-13 22:00:00 20.5 21 Sur 42 Sur 0 -- -- 73
2019-10-13 21:00:00 22.7 17 Sur 37 Sur 0 -- -- 60
2019-10-13 20:00:00 23.6 12 Sudeste 32 Sur 0 -- -- 59
2019-10-13 19:00:00 24.8 10 Sudeste 28 Sur 0 -- -- 54
2019-10-13 18:00:00 25.2 10 Sudeste 36 Sur 0 -- -- 53
2019-10-13 17:00:00 25.9 15 Sudeste 38 Sur 0 -- -- 52
2019-10-13 16:00:00 26.3 14 Sudeste 39 Sur 0 -- -- 53
2019-10-13 15:00:00 25.8 16 Sur 33 Sur 0 -- -- 56
2019-10-13 14:00:00 24.3 13 Sur 29 Sur 0 -- -- 60
2019-10-13 13:00:00 24.4 4 Sudeste 23 Sur 0 -- -- 61
2019-10-13 12:00:00 22.7 6 Sudeste 31 Sur 0 -- -- 67
2019-10-13 11:00:00 20.7 10 Sudeste 30 Sur 0 -- -- 75
2019-10-13 10:00:00 19.1 9 Sudeste 31 Sudeste 0 -- -- 81
2019-10-13 09:00:00 17.7 6 Sudeste 34 Sur 0 -- -- 86
2019-10-13 08:00:00 17.6 11 Sur 34 Sur 0 -- -- 85
2019-10-13 07:00:00 17.9 9 Sudeste 37 Sudeste 0 -- -- 83
2019-10-13 06:00:00 18 20 Sur 43 Sur 0 -- -- 83
2019-10-13 05:00:00 17.8 10 Sudeste 36 Sur 0 -- -- 83
2019-10-13 04:00:00 17.9 12 Sudeste 38 Sur 0 -- -- 83
2019-10-13 03:00:00 18 9 Sudeste 31 Sur 0 -- -- 82
2019-10-13 02:00:00 18.4 9 Sudeste 36 Sur 0 -- -- 81
2019-10-13 01:00:00 19 11 Sudeste 35 Sur 0 -- -- 79
2019-10-13 00:00:00 19.2 9 Sudeste 40 Sur 0 -- -- 77
2019-10-12 23:00:00 19.6 13 Sudeste 33 Sur 0 -- -- 75
2019-10-12 22:00:00 19.9 5 Sur 23 Sudeste 0 -- -- 77
2019-10-12 21:00:00 21.3 8 Sur 29 Sur 0 -- -- 71
2019-10-12 20:00:00 22.6 15 Sur 35 Sur 0 -- -- 64
2019-10-12 19:00:00 24.2 17 Sur 38 Sur 0 -- -- 60
2019-10-12 18:00:00 26.1 19 Sudeste 43 Sur 0 -- -- 54
2019-10-12 17:00:00 26.6 15 Sudeste 41 Sur 0 -- -- 51
2019-10-12 16:00:00 27.3 14 Sudeste 44 Sur 0 -- -- 48
2019-10-12 15:00:00 26.4 8 Sudeste 28 Sur 0 -- -- 50
2019-10-12 14:00:00 26 6 Sudeste 30 Sur 0 -- -- 52
2019-10-12 13:00:00 24.8 6 Sudeste 32 Sudeste 0 -- -- 57
2019-10-12 12:00:00 21.8 11 Sudeste 39 Sur 0 -- -- 71
2019-10-12 11:00:00 19.5 12 Sudeste 36 Sudeste 0 -- -- 80
2019-10-12 10:00:00 19.3 13 Sudeste 38 Sur 0 -- -- 80
2019-10-12 09:00:00 18.1 7 Sudeste 33 Sur 0 -- -- 86
2019-10-12 08:00:00 17.7 12 Sur 33 Sur 0 -- -- 87
2019-10-12 07:00:00 18 9 Sudeste 37 Sur 0 -- -- 86
2019-10-12 06:00:00 17.9 7 Sudeste 27 Sur 0 -- -- 87
2019-10-12 05:00:00 18.1 17 Sur 39 Sur 0 -- -- 86
2019-10-12 04:00:00 18.2 12 Sudeste 38 Sur 0 -- -- 86
2019-10-12 03:00:00 18.2 9 Sudeste 32 Sur 0 -- -- 86
2019-10-12 02:00:00 18.4 8 Sudeste 31 Sur 0 -- -- 86
2019-10-12 01:00:00 18.5 5 Sur 26 Sur 0 -- -- 86
2019-10-12 00:00:00 19.1 10 Sur 29 Sur 0 -- -- 84
2019-10-11 23:00:00 20.6 4 Sudeste 40 Sur 0 -- -- 75
2019-10-11 22:00:00 21.9 16 Sur 32 Sur 0 -- -- 68
2019-10-11 21:00:00 22.6 8 Sudeste 24 Sur 0 -- -- 66
2019-10-11 20:00:00 22.9 6 Sudeste 23 Sur 0 -- -- 63
2019-10-11 19:00:00 24 9 Sur 23 Sudeste 0 -- -- 56
2019-10-11 18:00:00 25 8 Sudeste 26 Sur 0 -- -- 52
2019-10-11 17:00:00 25.7 12 Sur 27 Sur 0 -- -- 50
2019-10-11 16:00:00 26.7 4 Sudeste 20 Sudeste 0 -- -- 47
2019-10-11 15:00:00 26.1 6 Sudeste 17 Sudeste 0 -- -- 48
2019-10-11 14:00:00 24.6 6 Sur 16 Sur 0 -- -- 52
2019-10-11 13:00:00 22.9 3 Sudeste 19 Sur 0 -- -- 57
2019-10-11 12:00:00 21.1 4 Sudeste 21 Sur 0 -- -- 62
2019-10-11 11:00:00 19.1 10 Sur 27 Sur 0 -- -- 70
2019-10-11 10:00:00 17.8 0 Calma 6 Sur 0 -- -- 75
2019-10-11 09:00:00 13 2 Sur 10 Sur 0 -- -- 90
2019-10-11 08:00:00 13.8 0 Calma 6 Sudeste 0 -- -- 90
2019-10-11 07:00:00 14.4 0 Calma 18 Sudeste 0 -- -- 85
2019-10-11 06:00:00 15.1 7 Sur 17 Sudoeste 0 -- -- 87
2019-10-11 05:00:00 15 4 Sudoeste 12 Sudoeste 0 -- -- 89
2019-10-11 04:00:00 14.3 6 Oeste 12 Oeste 0 -- -- 87
2019-10-11 03:00:00 13.8 3 Oeste 10 Oeste 0 -- -- 79
2019-10-11 02:00:00 13.6 8 Oeste 12 Oeste 0 -- -- 75
2019-10-11 01:00:00 11.4 0 Calma 5 Este 0 -- -- 72
2019-10-11 00:00:00 12.3 3 Sudoeste 4 Sur 0 -- -- 64
2019-10-10 23:00:00 12.4 0 Calma 6 Sudoeste 0 -- -- 64
2019-10-10 22:00:00 13.9 4 Sudoeste 6 Sudoeste 0 -- -- 60
2019-10-10 21:00:00 15.1 4 Sudoeste 8 Sur 0 -- -- 54
2019-10-10 20:00:00 17.7 5 Sudoeste 8 Sur 0 -- -- 47
2019-10-10 19:00:00 21.9 3 Noroeste 8 Norte 0 -- -- 38
2019-10-10 18:00:00 22.6 4 Norte 9 Oeste 0 -- -- 35
2019-10-10 17:00:00 23 4 Norte 13 Nordeste 0 -- -- 33
2019-10-10 16:00:00 22.6 7 Norte 14 Nordeste 0 -- -- 34
2019-10-10 15:00:00 21.7 6 Norte 19 Noroeste 0 -- -- 38
2019-10-10 14:00:00 20.4 7 Nordeste 15 Norte 0 -- -- 43
2019-10-10 13:00:00 18.5 5 Norte 15 Noroeste 0 -- -- 51
2019-10-10 12:00:00 17.3 7 Norte 18 Norte 0 -- -- 56
2019-10-10 11:00:00 15 12 Norte 18 Norte 0 -- -- 64
2019-10-10 10:00:00 13.5 3 Sudoeste 6 Sur 0 -- -- 70
2019-10-10 09:00:00 8.4 5 Sur 10 Sur 0 -- -- 85
2019-10-10 08:00:00 7.6 4 Sudoeste 9 Sur 0 -- -- 85
2019-10-10 07:00:00 8 5 Sur 7 Oeste 0 -- -- 85
2019-10-10 06:00:00 9.7 4 Sur 11 Oeste 0 -- -- 81
2019-10-10 05:00:00 9.8 5 Sudoeste 9 Sudoeste 0 -- -- 82
2019-10-10 04:00:00 10.6 4 Sur 10 Oeste 0 -- -- 78
2019-10-10 03:00:00 10.8 7 Oeste 12 Oeste 0 -- -- 77
2019-10-10 02:00:00 11.6 10 Oeste 15 Sudoeste 0 -- -- 73
2019-10-10 01:00:00 11.7 9 Oeste 16 Oeste 0 -- -- 72
2019-10-10 00:00:00 12.1 9 Sudoeste 15 Oeste 0 -- -- 70
2019-10-09 23:00:00 13.5 6 Sudoeste 12 Sudoeste 0 -- -- 65
2019-10-09 22:00:00 14.6 4 Oeste 18 Norte 0 -- -- 62
2019-10-09 21:00:00 15.8 9 Norte 26 Norte 0 -- -- 60
2019-10-09 20:00:00 17.9 12 Norte 28 Norte 0 -- -- 53
2019-10-09 19:00:00 20.5 16 Norte 32 Norte 0 -- -- 47
2019-10-09 18:00:00 22.3 18 Norte 40 Norte 0 -- -- 42
2019-10-09 17:00:00 23.5 21 Norte 34 Norte 0 -- -- 42
2019-10-09 16:00:00 23.8 20 Norte 35 Noroeste 0 -- -- 45
2019-10-09 15:00:00 24.1 16 Norte 32 Norte 0 -- -- 49
2019-10-09 14:00:00 24.1 14 Norte 26 Norte 0 -- -- 52
2019-10-09 13:00:00 21.9 7 Norte 31 Norte 0 -- -- 64
2019-10-09 12:00:00 20 9 Nordeste 21 Norte 0 -- -- 71
2019-10-09 11:00:00 18.1 9 Norte 16 Norte 0 -- -- 72
2019-10-09 10:00:00 17.7 0 Calma 9 Sur 0 -- -- 69
2019-10-09 09:00:00 12.2 3 Sudoeste 5 Sudoeste 0 -- -- 83
2019-10-09 08:00:00 11.9 2 Este 6 Nordeste 0 -- -- 82
2019-10-09 07:00:00 12.1 0 Calma 8 Sudoeste 0 -- -- 79
2019-10-09 06:00:00 12.6 2 Sudoeste 9 Sudoeste 0 -- -- 77
2019-10-09 05:00:00 13.8 0 Calma 9 Oeste 0 -- -- 72
2019-10-09 04:00:00 15 0 Calma 6 Sudoeste 0 -- -- 72
2019-10-09 03:00:00 15.5 4 Sudoeste 6 Sur 0 -- -- 69
2019-10-09 02:00:00 15.9 5 Sur 10 Sudoeste 0 -- -- 65
2019-10-09 01:00:00 17.4 4 Sudoeste 7 Sudoeste 0 -- -- 53
2019-10-09 00:00:00 17 0 Calma 4 Noroeste 0 -- -- 51
2019-10-08 23:00:00 18.4 3 Oeste 5 Oeste 0 -- -- 48
2019-10-08 22:00:00 19.3 0 Calma 11 Sur 0 -- -- 48
2019-10-08 21:00:00 21.6 3 Sudoeste 8 Sur 0 -- -- 43
2019-10-08 20:00:00 23.4 4 Sur 17 Sur 0 -- -- 41
2019-10-08 19:00:00 26.3 6 Sudeste 17 Sur 0 -- -- 35
2019-10-08 18:00:00 27.9 3 Sudeste 12 Sur 0 -- -- 33
2019-10-08 17:00:00 28.2 5 Nordeste 13 Este 0 -- -- 34
2019-10-08 16:00:00 28.1 4 Oeste 11 Nordeste 0 -- -- 35
2019-10-08 15:00:00 27.2 3 Sudoeste 12 Oeste 0 -- -- 34
2019-10-08 14:00:00 25.8 3 Sudoeste 12 Norte 0 -- -- 36
2019-10-08 13:00:00 24.4 2 Norte 13 Oeste 0 -- -- 37
2019-10-08 12:00:00 22.8 5 Norte 9 Norte 0 -- -- 42
2019-10-08 11:00:00 20.5 2 Nordeste 5 Este 0 -- -- 46
2019-10-08 10:00:00 18.4 2 Sudoeste 5 Oeste 0 -- -- 50
2019-10-08 09:00:00 12.5 0 Calma 4 Nordeste 0 -- -- 61
2019-10-08 08:00:00 10.8 3 Nordeste 8 Norte 0 -- -- 61
2019-10-08 07:00:00 10.3 0 Calma 9 Sudoeste 0 -- -- 58
2019-10-08 06:00:00 11 3 Sudoeste 6 Noroeste 0 -- -- 54
2019-10-08 05:00:00 12.4 4 Sur 8 Sudoeste 0 -- -- 48
2019-10-08 04:00:00 12.2 2 Noroeste 9 Sudoeste 0 -- -- 51
2019-10-08 03:00:00 14.3 3 Sudeste 8 Este 0 -- -- 49
2019-10-08 02:00:00 12.7 5 Oeste 14 Oeste 0 -- -- 54
2019-10-08 01:00:00 14 3 Sur 11 Sur 0 -- -- 50
2019-10-08 00:00:00 14.9 6 Sudoeste 11 Sudoeste 0 -- -- 51
2019-10-07 23:00:00 17.3 2 Norte 16 Norte 0 -- -- 51
2019-10-07 22:00:00 18.4 10 Norte 25 Norte 0 -- -- 48
2019-10-07 21:00:00 20.2 12 Norte 22 Norte 0 -- -- 47
2019-10-07 20:00:00 20.9 10 Norte 26 Norte 0 -- -- 44
2019-10-07 19:00:00 23.6 13 Norte 33 Norte 0 -- -- 39
2019-10-07 18:00:00 25 19 Norte 33 Norte 0 -- -- 36
2019-10-07 17:00:00 25.5 18 Norte 31 Norte 0 -- -- 35
2019-10-07 16:00:00 25.5 20 Norte 41 Norte 0 -- -- 36
2019-10-07 15:00:00 23.9 26 Norte 40 Norte 0 -- -- 38
2019-10-07 14:00:00 22 27 Norte 41 Norte 0 -- -- 44
2019-10-07 13:00:00 19.9 19 Norte 34 Norte 0 -- -- 51
2019-10-07 12:00:00 18.6 20 Norte 37 Nordeste 0 -- -- 52
2019-10-07 11:00:00 17.8 20 Norte 38 Norte 0 -- -- 53
2019-10-07 10:00:00 15.7 15 Norte 32 Norte 0 -- -- 61
2019-10-07 09:00:00 13.9 21 Norte 42 Norte 0 -- -- 68
2019-10-07 08:00:00 13.3 24 Norte 37 Nordeste 0 -- -- 70
2019-10-07 07:00:00 13.1 17 Norte 38 Norte 0 -- -- 70
2019-10-07 06:00:00 13.2 18 Norte 32 Norte 0 -- -- 68
2019-10-07 05:00:00 13.4 19 Norte 37 Norte 0 -- -- 65
2019-10-07 04:00:00 13.6 22 Norte 44 Norte 0 -- -- 66
2019-10-07 03:00:00 14.4 23 Norte 42 Noroeste 0 -- -- 63
2019-10-07 02:00:00 14.6 18 Norte 42 Norte 0 -- -- 66
2019-10-07 01:00:00 15.6 22 Norte 44 Norte 0 -- -- 62
2019-10-07 00:00:00 16 29 Norte 46 Norte 0 -- -- 64
2019-10-06 23:00:00 16 16 Norte 26 Norte 0 -- -- 63
2019-10-06 22:00:00 16.5 14 Noroeste 27 Norte 0 -- -- 62
2019-10-06 21:00:00 17.7 14 Norte 40 Norte 0 -- -- 61
2019-10-06 20:00:00 19.3 33 Norte 50 Norte 0 -- -- 56
2019-10-06 19:00:00 21.2 30 Norte 46 Norte 0 -- -- 49
2019-10-06 18:00:00 22.3 27 Nordeste 46 Nordeste 0 -- -- 50
2019-10-06 17:00:00 22.7 33 Norte 51 Nordeste 0 -- -- 49
2019-10-06 16:00:00 23.7 26 Norte 41 Norte 0 -- -- 49
2019-10-06 15:00:00 23 24 Norte 36 Norte 0 -- -- 49
2019-10-06 14:00:00 21.8 13 Norte 33 Norte 0 -- -- 49
2019-10-06 13:00:00 21.1 20 Norte 33 Norte 0 -- -- 50
2019-10-06 12:00:00 19.1 11 Noroeste 28 Norte 0 -- -- 54
2019-10-06 11:00:00 18.6 13 Noroeste 23 Noroeste 0 -- -- 58
2019-10-06 10:00:00 15.9 10 Noroeste 18 Noroeste 0 -- -- 71
2019-10-06 09:00:00 12.6 5 Sudoeste 10 Sudoeste 0 -- -- 85
2019-10-06 08:00:00 10.1 6 Sudoeste 9 Sudoeste 0 -- -- 90
2019-10-06 07:00:00 10.6 3 Sur 12 Sur 0 -- -- 89
2019-10-06 06:00:00 10.8 0 Calma 10 Sur 0 -- -- 84
2019-10-06 05:00:00 11 3 Sur 9 Sudoeste 0 -- -- 84
2019-10-06 04:00:00 10 6 Sudoeste 9 Sudoeste 0 -- -- 82
2019-10-06 03:00:00 11.2 2 Sudoeste 9 Sur 0 -- -- 78
2019-10-06 02:00:00 12 0 Calma 6 Sur 0 -- -- 75
2019-10-06 01:00:00 13.7 4 Sudoeste 8 Sudoeste 0 -- -- 69
2019-10-06 00:00:00 14 3 Sudoeste 9 Sudoeste 0 -- -- 67
2019-10-05 23:00:00 15.5 6 Sudoeste 9 Sudoeste 0 -- -- 63
2019-10-05 22:00:00 16.7 5 Sudoeste 9 Sur 0 -- -- 59
2019-10-05 21:00:00 18.5 4 Sudoeste 10 Sudoeste 0 -- -- 54
2019-10-05 20:00:00 20.7 4 Oeste 12 Norte 0 -- -- 46
2019-10-05 19:00:00 24.9 7 Noroeste 13 Noroeste 0 -- -- 39
2019-10-05 18:00:00 26.2 8 Norte 17 Noroeste 0 -- -- 36
2019-10-05 17:00:00 26.3 7 Norte 18 Noroeste 0 -- -- 37
2019-10-05 16:00:00 25.8 10 Norte 21 Norte 0 -- -- 39
2019-10-05 15:00:00 24.8 10 Norte 22 Norte 0 -- -- 40
2019-10-05 14:00:00 23.7 10 Norte 22 Norte 0 -- -- 46
2019-10-05 13:00:00 22.7 9 Norte 21 Norte 0 -- -- 47
2019-10-05 12:00:00 20.4 11 Norte 22 Noroeste 0 -- -- 54
2019-10-05 11:00:00 18.5 12 Norte 20 Noroeste 0 -- -- 60
2019-10-05 10:00:00 16.8 12 Norte 20 Norte 0 -- -- 67
2019-10-05 09:00:00 14.4 8 Noroeste 16 Noroeste 0 -- -- 81
2019-10-05 08:00:00 13 11 Noroeste 18 Noroeste 0 -- -- 86
2019-10-05 07:00:00 12.4 12 Oeste 17 Oeste 0 -- -- 90
2019-10-05 06:00:00 13.6 12 Noroeste 22 Noroeste 0 -- -- 85
2019-10-05 05:00:00 13.5 10 Oeste 20 Noroeste 0 -- -- 84
2019-10-05 04:00:00 14.1 12 Oeste 19 Noroeste 0 -- -- 79
2019-10-05 03:00:00 14.3 8 Oeste 24 Noroeste 0 -- -- 78
2019-10-05 02:00:00 15.7 12 Noroeste 21 Noroeste 0 -- -- 73
2019-10-05 01:00:00 15.9 13 Noroeste 23 Norte 0 -- -- 73
2019-10-05 00:00:00 16.4 9 Noroeste 20 Noroeste 0 -- -- 71
2019-10-04 23:00:00 17.3 5 Sudoeste 10 Sudoeste 0 -- -- 67
2019-10-04 22:00:00 18.8 6 Norte 11 Nordeste 0 -- -- 64
2019-10-04 21:00:00 19.5 6 Norte 13 Norte 0 -- -- 63
2019-10-04 20:00:00 20.5 4 Norte 18 Norte 0 -- -- 58
2019-10-04 19:00:00 24.2 12 Norte 20 Norte 0 -- -- 48
2019-10-04 18:00:00 25.9 13 Nordeste 25 Norte 0 -- -- 45
2019-10-04 17:00:00 26.7 13 Norte 26 Norte 0 -- -- 44
2019-10-04 16:00:00 27 15 Norte 29 Norte 0 -- -- 43
2019-10-04 15:00:00 26.4 13 Norte 28 Norte 0 -- -- 44
2019-10-04 14:00:00 25.9 11 Norte 23 Norte 0 -- -- 47
2019-10-04 13:00:00 24.8 9 Norte 20 Norte 0 -- -- 51
2019-10-04 12:00:00 23.6 10 Noroeste 19 Noroeste 0 -- -- 55
2019-10-04 11:00:00 21.3 7 Noroeste 14 Noroeste 0 -- -- 62
2019-10-04 10:00:00 18.1 5 Norte 10 Norte 0 -- -- 69
2019-10-04 09:00:00 13.3 5 Sudoeste 9 Sudoeste 0 -- -- 77
2019-10-04 08:00:00 10.7 4 Sudoeste 7 Sur 0 -- -- 84
2019-10-04 07:00:00 11.1 7 Sudoeste 9 Sur 0 -- -- 80
2019-10-04 06:00:00 11.5 2 Sur 9 Sur 0 -- -- 73
2019-10-04 05:00:00 13 4 Sur 12 Sur 0 -- -- 66
2019-10-04 04:00:00 13.4 3 Sur 12 Sudoeste 0 -- -- 59
2019-10-04 03:00:00 14 5 Sur 13 Noroeste 0 -- -- 52
2019-10-04 02:00:00 14.1 9 Noroeste 17 Noroeste 0 -- -- 54
2019-10-04 01:00:00 14.1 5 Norte 14 Norte 0 -- -- 48
2019-10-04 00:00:00 15.8 6 Oeste 20 Norte 0 -- -- 45
2019-10-03 23:00:00 16.8 13 Norte 31 Norte 0 -- -- 44
2019-10-03 22:00:00 19 21 Norte 33 Norte 0 -- -- 40
2019-10-03 21:00:00 18.6 5 Noroeste 32 Norte 0 -- -- 43
2019-10-03 20:00:00 20.8 13 Norte 44 Norte 0 -- -- 39
2019-10-03 19:00:00 23.5 26 Norte 40 Norte 0 -- -- 28
2019-10-03 18:00:00 25.2 20 Norte 35 Norte 0 -- -- 22
2019-10-03 17:00:00 25.5 20 Norte 34 Noroeste 0 -- -- 23
2019-10-03 16:00:00 25.8 16 Norte 29 Norte 0 -- -- 25
2019-10-03 15:00:00 24.1 16 Norte 41 Norte 0 -- -- 34
2019-10-03 14:00:00 22.6 16 Norte 28 Norte 0 -- -- 41
2019-10-03 13:00:00 20.9 10 Norte 25 Norte 0 -- -- 49
2019-10-03 12:00:00 18.4 16 Noroeste 30 Norte 0 -- -- 56
2019-10-03 11:00:00 16.6 9 Noroeste 15 Noroeste 0 -- -- 65
2019-10-03 10:00:00 12.3 3 Oeste 7 Oeste 0 -- -- 84
2019-10-03 09:00:00 10.2 3 Sudoeste 9 Sudoeste 0 -- -- 87
2019-10-03 08:00:00 9.8 5 Sudoeste 9 Sudoeste 0 -- -- 89
2019-10-03 07:00:00 10.2 3 Oeste 8 Sur 0 -- -- 86
2019-10-03 06:00:00 10.6 3 Sudoeste 10 Norte 0 -- -- 86
2019-10-03 05:00:00 11.8 6 Norte 15 Norte 0 -- -- 83
2019-10-03 04:00:00 11.2 5 Noroeste 12 Noroeste 0 -- -- 83
2019-10-03 03:00:00 11.7 4 Norte 21 Norte 0 -- -- 79
2019-10-03 02:00:00 13.4 9 Norte 30 Norte 0 -- -- 73
2019-10-03 01:00:00 13.9 12 Norte 27 Norte 0 -- -- 72
2019-10-03 00:00:00 14.5 15 Norte 33 Norte 0 -- -- 70
2019-10-02 23:00:00 15 16 Norte 32 Norte 0 -- -- 70
2019-10-02 22:00:00 15.3 14 Norte 29 Nordeste 0 -- -- 69
2019-10-02 21:00:00 16.3 22 Norte 38 Nordeste 0 -- -- 67
2019-10-02 20:00:00 17.4 27 Norte 51 Norte 0 -- -- 62
2019-10-02 19:00:00 18.6 30 Norte 55 Norte 0 -- -- 59
2019-10-02 18:00:00 20.7 35 Norte 60 Norte 0 -- -- 51
2019-10-02 17:00:00 21.1 44 Norte 66 Norte 0 -- -- 49
2019-10-02 16:00:00 21.3 40 Norte 67 Norte 0 -- -- 49
2019-10-02 15:00:00 21.1 43 Norte 63 Norte 0 -- -- 51
2019-10-02 14:00:00 21.1 40 Norte 60 Norte 0 -- -- 51
2019-10-02 13:00:00 20.8 34 Norte 56 Norte 0 -- -- 53
2019-10-02 12:00:00 19.4 35 Norte 54 Norte 0 -- -- 56
2019-10-02 11:00:00 18.5 32 Norte 48 Norte 0 -- -- 57
2019-10-02 10:00:00 17.1 21 Norte 34 Norte 0 -- -- 61
2019-10-02 09:00:00 14.8 7 Norte 19 Norte 0 -- -- 71
2019-10-02 08:00:00 13.1 5 Norte 19 Norte 0 -- -- 74
2019-10-02 07:00:00 14.3 12 Norte 22 Norte 0 -- -- 71
2019-10-02 06:00:00 14.6 13 Norte 28 Norte 0 -- -- 71
2019-10-02 05:00:00 14.9 10 Norte 20 Noroeste 0 -- -- 73
2019-10-02 04:00:00 15.9 11 Noroeste 27 Noroeste 0 -- -- 73
2019-10-02 03:00:00 16.4 8 Norte 22 Noroeste 0 -- -- 70
2019-10-02 02:00:00 16.5 10 Noroeste 21 Norte 0 -- -- 69
2019-10-02 01:00:00 17.5 14 Norte 22 Noroeste 0 -- -- 65
2019-10-02 00:00:00 17.7 8 Noroeste 17 Noroeste 0 -- -- 65
2019-10-01 23:00:00 19.6 9 Norte 19 Noroeste 0 -- -- 58
2019-10-01 22:00:00 18.6 3 Oeste 13 Norte 0 -- -- 61
2019-10-01 21:00:00 20.8 5 Norte 14 Norte 0 -- -- 56
2019-10-01 20:00:00 23.1 9 Norte 30 Nordeste 0 -- -- 49
2019-10-01 19:00:00 25.8 22 Norte 33 Norte 0 -- -- 44
2019-10-01 18:00:00 27.6 16 Norte 32 Norte 0 -- -- 41
2019-10-01 17:00:00 28 24 Norte 34 Norte 0 -- -- 43
2019-10-01 16:00:00 28 6 Norte 25 Norte 0 -- -- 45
2019-10-01 15:00:00 28.1 10 Norte 22 Norte 0 -- -- 44
2019-10-01 14:00:00 26.6 8 Norte 17 Noroeste 0 -- -- 46
2019-10-01 13:00:00 26.5 5 Sudoeste 10 Oeste 0 -- -- 45
2019-10-01 12:00:00 23.2 5 Norte 13 Norte 0 -- -- 65
2019-10-01 11:00:00 21.2 4 Norte 6 Norte 0 -- -- 74
2019-10-01 10:00:00 18.7 4 Nordeste 8 Nordeste 0 -- -- 84
2019-10-01 09:00:00 15 0 Calma 5 Sur 0 -- -- 88
2019-10-01 08:00:00 14.3 4 Sur 9 Sur 0 -- -- 90
2019-10-01 07:00:00 13.3 5 Sur 9 Sudoeste 0 -- -- 87
2019-10-01 06:00:00 14.8 4 Sur 9 Sur 0 -- -- 86
2019-10-01 05:00:00 15.3 4 Sudoeste 10 Sur 0 -- -- 85
2019-10-01 04:00:00 18.8 9 Sur 17 Sur 0 -- -- 80
2019-10-01 03:00:00 19.7 7 Sudeste 17 Sudeste 0 -- -- 77
2019-10-01 02:00:00 19.1 4 Sur 13 Sur 0 -- -- 73
2019-10-01 01:00:00 16.8 2 Sudoeste 9 Este 0 -- -- 69
2019-10-01 00:00:00 17.4 3 Nordeste 8 Sur 0 -- -- 68
2019-09-30 23:00:00 18.5 2 Sudoeste 5 Sur 0 -- -- 63
2019-09-30 22:00:00 19.2 2 Noroeste 10 Sudeste 0 -- -- 55
2019-09-30 21:00:00 22.9 5 Sur 17 Sur 0 -- -- 46
2019-09-30 20:00:00 26.3 10 Sudeste 23 Sudeste 0 -- -- 39
2019-09-30 19:00:00 29.2 3 Sudeste 10 Este 0 -- -- 34
2019-09-30 18:00:00 30.3 3 Norte 10 Norte 0 -- -- 25
2019-09-30 17:00:00 31.1 4 Sudoeste 13 Noroeste 0 -- -- 27
2019-09-30 16:00:00 30.3 4 Norte 10 Norte 0 -- -- 32
2019-09-30 15:00:00 29 6 Norte 14 Noroeste 0 -- -- 34
2019-09-30 14:00:00 28.3 6 Noroeste 12 Norte 0 -- -- 36
2019-09-30 13:00:00 26.1 5 Nordeste 13 Noroeste 0 -- -- 39
2019-09-30 12:00:00 25 3 Norte 8 Noroeste 0 -- -- 44
2019-09-30 11:00:00 21.9 3 Nordeste 5 Norte 0 -- -- 50
2019-09-30 10:00:00 19.3 0 Calma 5 Sudoeste 0 -- -- 58
2019-09-30 09:00:00 14 2 Sudoeste 7 Sudoeste 0 -- -- 73
2019-09-30 08:00:00 11.2 6 Sudoeste 9 Sur 0 -- -- 79
2019-09-30 07:00:00 11.9 3 Sudoeste 6 Sudoeste 0 -- -- 78
2019-09-30 06:00:00 12.3 4 Sur 8 Sur 0 -- -- 75
2019-09-30 05:00:00 13.1 3 Sudoeste 8 Sudoeste 0 -- -- 71
2019-09-30 04:00:00 14.4 5 Sur 9 Sudoeste 0 -- -- 65
2019-09-30 03:00:00 15.7 7 Sudoeste 10 Sudoeste 0 -- -- 59
2019-09-30 02:00:00 15.6 4 Sur 12 Sur 0 -- -- 57
2019-09-30 01:00:00 16.2 2 Nordeste 11 Sudoeste 0 -- -- 55
2019-09-30 00:00:00 17 5 Sudoeste 8 Sudoeste 0 -- -- 50
2019-09-29 23:00:00 17.5 6 Sudoeste 14 Sur 0 -- -- 48
2019-09-29 22:00:00 18.7 4 Sudoeste 11 Sudoeste 0 -- -- 48
2019-09-29 21:00:00 20 5 Sudoeste 8 Sudoeste 0 -- -- 47
2019-09-29 20:00:00 23.4 0 Calma 8 Norte 0 -- -- 41
2019-09-29 19:00:00 29 5 Norte 10 Norte 0 -- -- 31
2019-09-29 18:00:00 30.1 6 Norte 16 Norte 0 -- -- 29
2019-09-29 17:00:00 30.2 6 Nordeste 15 Nordeste 0 -- -- 27
2019-09-29 16:00:00 29.8 8 Norte 19 Norte 0 -- -- 28
2019-09-29 15:00:00 29.3 8 Noroeste 19 Noroeste 0 -- -- 31
2019-09-29 14:00:00 28.2 5 Noroeste 17 Oeste 0 -- -- 42
2019-09-29 13:00:00 25.9 5 Norte 13 Noroeste 0 -- -- 47
2019-09-29 12:00:00 23.3 4 Sur 8 Este 0 -- -- 65
2019-09-29 11:00:00 21.1 4 Norte 10 Este 0 -- -- 79
2019-09-29 10:00:00 19.6 4 Sudoeste 8 Sudoeste 0 -- -- 84
2019-09-29 09:00:00 15.4 0 Calma 8 Sudoeste 0 -- -- 94
2019-09-29 08:00:00 14.2 5 Sudoeste 9 Sudoeste 0 -- -- 93
2019-09-29 07:00:00 16.6 3 Sudoeste 12 Sur 0 -- -- 94
2019-09-29 06:00:00 16.5 2 Sudoeste 12 Sur 0 -- -- 94
2019-09-29 05:00:00 16.9 3 Sudoeste 12 Sur 0 -- -- 91
2019-09-29 04:00:00 18 3 Sudeste 10 Sur 0 -- -- 88
2019-09-29 03:00:00 18.4 0 Calma 18 Sudeste 0 -- -- 86
2019-09-29 02:00:00 19.2 6 Sudeste 18 Sur 0 -- -- 81
2019-09-29 01:00:00 18.6 4 Sur 11 Sur 0 -- -- 84
2019-09-29 00:00:00 18.1 3 Sudoeste 8 Sur 0 -- -- 75
2019-09-28 23:00:00 19.7 3 Norte 14 Sur 0 -- -- 69
2019-09-28 22:00:00 22.4 7 Sudeste 16 Sudoeste 0 -- -- 57
2019-09-28 21:00:00 23.2 4 Sudeste 13 Sudeste 0 -- -- 50
2019-09-28 20:00:00 24.4 4 Sudeste 22 Sur 0 -- -- 44
2019-09-28 19:00:00 26.6 10 Sudeste 23 Sur 0 -- -- 40
2019-09-28 18:00:00 28 7 Sudeste 27 Sur 0 -- -- 37
2019-09-28 17:00:00 29.1 6 Sudoeste 17 Oeste 0 -- -- 31
2019-09-28 16:00:00 28.3 6 Sudoeste 15 Sudoeste 0 -- -- 36
2019-09-28 15:00:00 27.8 7 Oeste 15 Oeste 0 -- -- 40
2019-09-28 14:00:00 25.7 5 Nordeste 12 Norte 0 -- -- 45
2019-09-28 13:00:00 23.8 5 Norte 13 Nordeste 0 -- -- 52
2019-09-28 12:00:00 21.5 7 Norte 14 Nordeste 0 -- -- 60
2019-09-28 11:00:00 19.3 6 Nordeste 11 Norte 0 -- -- 66
2019-09-28 10:00:00 17 3 Nordeste 5 Nordeste 0 -- -- 72
2019-09-28 09:00:00 13.4 0 Calma 9 Sur 0 -- -- 81
2019-09-28 08:00:00 10.4 2 Sudoeste 6 Sudoeste 0 -- -- 86
2019-09-28 07:00:00 11.2 3 Sudoeste 5 Sur 0 -- -- 82
2019-09-28 06:00:00 11.3 4 Sur 7 Sudoeste 0 -- -- 79
2019-09-28 05:00:00 11.7 0 Calma 10 Sudoeste 0 -- -- 75
2019-09-28 04:00:00 12.5 7 Sudoeste 10 Sur 0 -- -- 69
2019-09-28 03:00:00 12.3 0 Calma 5 Sur 0 -- -- 67
2019-09-28 02:00:00 13.3 3 Sudoeste 5 Oeste 0 -- -- 64
2019-09-28 01:00:00 15.6 3 Sur 8 Sudoeste 0 -- -- 55
2019-09-28 00:00:00 16 2 Sur 9 Sudoeste 0 -- -- 54
2019-09-27 23:00:00 16.8 6 Sudoeste 9 Sudoeste 0 -- -- 51
2019-09-27 22:00:00 18.3 4 Sur 8 Sudoeste 0 -- -- 47
2019-09-27 21:00:00 20.3 3 Nordeste 5 Este 0 -- -- 42
2019-09-27 20:00:00 23.1 2 Nordeste 12 Nordeste 0 -- -- 37
2019-09-27 19:00:00 28 7 Nordeste 20 Nordeste 0 -- -- 28
2019-09-27 18:00:00 28.9 6 Nordeste 15 Norte 0 -- -- 30
2019-09-27 17:00:00 29.1 8 Norte 18 Norte 0 -- -- 31
2019-09-27 16:00:00 29 9 Noroeste 15 Noroeste 0 -- -- 34
2019-09-27 15:00:00 27.9 6 Norte 14 Noroeste 0 -- -- 37
2019-09-27 14:00:00 26.8 4 Nordeste 19 Nordeste 0 -- -- 44
2019-09-27 13:00:00 25.6 6 Norte 14 Nordeste 0 -- -- 48
2019-09-27 12:00:00 23.4 6 Norte 12 Norte 0 -- -- 54
2019-09-27 11:00:00 21.6 7 Norte 13 Norte 0 -- -- 61
2019-09-27 10:00:00 20.7 6 Oeste 12 Oeste 0 -- -- 66
2019-09-27 09:00:00 15.5 4 Sudoeste 8 Sudoeste 0 -- -- 84
2019-09-27 08:00:00 12.6 0 Calma 6 Sudoeste 0 -- -- 86
2019-09-27 07:00:00 13.9 3 Sudoeste 6 Sur 0 -- -- 84
2019-09-27 06:00:00 15 4 Sur 8 Sudoeste 0 -- -- 77
2019-09-27 05:00:00 15.7 3 Sudeste 9 Sudoeste 0 -- -- 76
2019-09-27 04:00:00 15.3 0 Calma 9 Sudoeste 0 -- -- 76
2019-09-27 03:00:00 16.5 2 Sur 6 Norte 0 -- -- 73
2019-09-27 02:00:00 16.6 0 Calma 4 Oeste 0 -- -- 73
2019-09-27 01:00:00 16.4 0 Calma 3 Sur 0 -- -- 73
2019-09-27 00:00:00 17.9 0 Calma 7 Sudoeste 0 -- -- 62
2019-09-26 23:00:00 20.1 4 Sur 6 Sur 0 -- -- 55
2019-09-26 22:00:00 22.9 6 Sur 19 Sudeste 0 -- -- 48
2019-09-26 21:00:00 24 11 Sur 19 Sur 0 -- -- 45
2019-09-26 20:00:00 25.1 3 Sudeste 16 Sudeste 0 -- -- 43
2019-09-26 19:00:00 27.9 3 Sudeste 13 Este 0 -- -- 33
2019-09-26 18:00:00 28.7 3 Noroeste 9 Norte 0 -- -- 32
2019-09-26 17:00:00 28.7 5 Noroeste 16 Noroeste 0 -- -- 33
2019-09-26 16:00:00 27.9 7 Nordeste 15 Noroeste 0 -- -- 35
2019-09-26 15:00:00 27.8 6 Noroeste 18 Norte 0 -- -- 34
2019-09-26 14:00:00 26.7 4 Este -- -- -- -- -- 38
2019-09-26 13:00:00 -- -- -- -- -- -- -- -- --
2019-09-26 12:00:00 23.5 6 Noroeste 16 Noroeste 0 -- -- 47
2019-09-26 11:00:00 21.6 5 Oeste 13 Oeste 0 -- -- 53
2019-09-26 10:00:00 19.2 5 Sudoeste 9 Sudoeste 0 -- -- 61
2019-09-26 09:00:00 15.7 6 Sur 10 Sur 0 -- -- 73
2019-09-26 08:00:00 13.1 7 Sur 11 Sur 0 -- -- 80
2019-09-26 07:00:00 11.5 3 Sudoeste 13 Sur 0 -- -- 82
2019-09-26 06:00:00 12.5 5 Sudoeste 8 Sudoeste 0 -- -- 79
2019-09-26 05:00:00 13.3 3 Sudoeste 9 Sudoeste 0 -- -- 76
2019-09-26 04:00:00 14 3 Sudoeste 9 Sur 0 -- -- 72
2019-09-26 03:00:00 15.4 5 Sur 10 Sudoeste 0 -- -- 69
2019-09-26 02:00:00 14 6 Sur 9 Sudoeste 0 -- -- 72
2019-09-26 01:00:00 14.7 3 Sur 6 Sur 0 -- -- 69
2019-09-26 00:00:00 16.5 4 Sur 10 Nordeste 0 -- -- 64
2019-09-25 23:00:00 17.8 5 Nordeste 13 Norte 0 -- -- 60
2019-09-25 22:00:00 18.9 11 Nordeste 27 Nordeste 0 -- -- 56
2019-09-25 21:00:00 19.4 14 Norte 19 Norte 0 -- -- 55
2019-09-25 20:00:00 20.5 12 Norte 26 Norte 0 -- -- 50
2019-09-25 19:00:00 21.5 15 Norte 36 Norte 0 -- -- 47
2019-09-25 18:00:00 22.6 18 Norte 35 Norte 0 -- -- 45
2019-09-25 17:00:00 23.1 22 Norte 35 Norte 0 -- -- 44
2019-09-25 16:00:00 23.9 18 Norte 34 Norte 0 -- -- 43
2019-09-25 15:00:00 23 21 Norte 41 Norte 0 -- -- 43
2019-09-25 14:00:00 22.3 22 Norte 37 Norte 0 -- -- 45
2019-09-25 13:00:00 22.5 19 Norte 33 Norte 0 -- -- 48
2019-09-25 12:00:00 21.1 21 Norte 35 Norte 0 -- -- 48
2019-09-25 11:00:00 20 17 Norte 32 Noroeste 0 -- -- 55
2019-09-25 10:00:00 17.6 12 Norte 21 Noroeste 0 -- -- 66
2019-09-25 09:00:00 15.7 11 Noroeste 23 Noroeste 0 -- -- 73
2019-09-25 08:00:00 14.3 3 Noroeste 13 Sur 0 -- -- 80
2019-09-25 07:00:00 14.9 9 Sudoeste 19 Sudoeste 0 -- -- 81
2019-09-25 06:00:00 15.2 6 Oeste 14 Noroeste 0 -- -- 79
2019-09-25 05:00:00 16.1 5 Noroeste 20 Norte 0 -- -- 76
2019-09-25 04:00:00 17.9 9 Norte 17 Norte 0 -- -- 74
2019-09-25 03:00:00 18.3 10 Noroeste 23 Oeste 0 -- -- 75
2019-09-25 02:00:00 19.4 9 Noroeste 18 Noroeste 0 -- -- 71
2019-09-25 01:00:00 20.9 3 Norte 5 Norte 0 -- -- 65
2019-09-25 00:00:00 21.8 3 Norte 10 Noroeste 0 -- -- 61
2019-09-24 23:00:00 21 9 Noroeste 13 Noroeste 0 -- -- 62
2019-09-24 22:00:00 21.3 5 Sudoeste 8 Sudoeste 0 -- -- 60
2019-09-24 21:00:00 21.4 0 Calma 7 Noroeste 0 -- -- 59
2019-09-24 20:00:00 23.6 5 Norte 19 Norte 0 -- -- 53
2019-09-24 19:00:00 26.4 14 Norte 28 Norte 0 -- -- 46
2019-09-24 18:00:00 28.8 16 Norte 26 Norte 0 -- -- 39
2019-09-24 17:00:00 30 14 Noroeste 29 Noroeste 0 -- -- 37
2019-09-24 16:00:00 29.3 11 Noroeste 31 Noroeste 0 -- -- 34
2019-09-24 15:00:00 29 14 Noroeste 29 Norte 0 -- -- 35
2019-09-24 14:00:00 27.9 12 Noroeste 24 Norte 0 -- -- 37
2019-09-24 13:00:00 25.7 5 Norte 15 Noroeste 0 -- -- 41
2019-09-24 12:00:00 24.4 9 Noroeste 18 Oeste 0 -- -- 44
2019-09-24 11:00:00 22.6 11 Noroeste 16 Oeste 0 -- -- 47
2019-09-24 10:00:00 20 0 Calma 5 Nordeste 0 -- -- 56
2019-09-24 09:00:00 15.3 3 Nordeste 8 Sudoeste 0 -- -- 71
2019-09-24 08:00:00 12.3 4 Sur 8 Sur 0 -- -- 80
2019-09-24 07:00:00 12.3 0 Calma 4 Sur 0 -- -- 79
2019-09-24 06:00:00 13.7 3 Sur 6 Sudoeste 0 -- -- 75
2019-09-24 05:00:00 14.6 2 Sur 5 Sur 0 -- -- 73
2019-09-24 04:00:00 16.2 3 Sur 8 Sudoeste 0 -- -- 64
2019-09-24 03:00:00 16.1 5 Sudoeste 9 Oeste 0 -- -- 60
2019-09-24 02:00:00 15.8 6 Sudoeste 9 Oeste 0 -- -- 62
2019-09-24 01:00:00 15.3 0 Calma 7 Sudoeste 0 -- -- 66
2019-09-24 00:00:00 16 5 Sudoeste 18 Sudoeste 0 -- -- 63
2019-09-23 23:00:00 16.3 6 Sur 8 Sur 0 -- -- 61
2019-09-23 22:00:00 17.2 5 Sudoeste 8 Sudoeste 0 -- -- 58
2019-09-23 21:00:00 17.3 3 Sudoeste 4 Sudoeste 0 -- -- 61
2019-09-23 20:00:00 20.8 0 Calma 9 Este 0 -- -- 50
2019-09-23 19:00:00 23.2 4 Nordeste 13 Norte 0 -- -- 39
2019-09-23 18:00:00 24.2 6 Norte 22 Noroeste 0 -- -- 39
2019-09-23 17:00:00 24 8 Noroeste 19 Norte 0 -- -- 38
2019-09-23 16:00:00 24.1 7 Noroeste 19 Norte 0 -- -- 37
2019-09-23 15:00:00 24.2 6 Noroeste 17 Norte 0 -- -- 39
2019-09-23 14:00:00 24 8 Oeste 26 Oeste 0 -- -- 39
2019-09-23 13:00:00 23 6 Norte 14 Noroeste 0 -- -- 47
2019-09-23 12:00:00 21.4 6 Noroeste 16 Noroeste 0 -- -- 54
2019-09-23 11:00:00 19.3 6 Oeste 12 Sudoeste 0 -- -- 63
2019-09-23 10:00:00 15.9 8 Sudoeste 14 Sudoeste 0 -- -- 80
2019-09-23 09:00:00 12.8 4 Sudoeste 12 Sur 0 -- -- 92
2019-09-23 08:00:00 11.9 6 Sudoeste 12 Sur 0 -- -- 91
2019-09-23 07:00:00 11.8 4 Sudoeste 12 Sudoeste 0 -- -- 90
2019-09-23 06:00:00 10.8 6 Sudoeste 9 Sur 0 -- -- 87
2019-09-23 05:00:00 11.2 5 Sur 8 Sur 0 -- -- 85
2019-09-23 04:00:00 11.8 4 Sudoeste 9 Sudoeste 0 -- -- 82
2019-09-23 03:00:00 12 6 Sudoeste 8 Sudoeste 0 -- -- 79
2019-09-23 02:00:00 13.5 4 Sur 10 Sur 0 -- -- 72
2019-09-23 01:00:00 11.9 5 Sur 10 Sudoeste 0 -- -- 83
2019-09-23 00:00:00 13.3 3 Sudoeste 8 Sur 0 -- -- 79
2019-09-22 23:00:00 14 6 Sudoeste 8 Sudoeste 0 -- -- 79
2019-09-22 22:00:00 14.3 0 Calma 3 Sur 0 -- -- 81
2019-09-22 21:00:00 17.1 0 Calma 13 Norte 0 -- -- 64
2019-09-22 20:00:00 19.6 8 Norte 23 Norte 0 -- -- 59
2019-09-22 19:00:00 22.1 17 Norte 28 Norte 0 -- -- 48
2019-09-22 18:00:00 22.4 18 Nordeste 36 Nordeste 0 -- -- 53
2019-09-22 17:00:00 24.1 19 Norte 33 Norte 0 -- -- 52
2019-09-22 16:00:00 24.7 18 Noroeste 29 Noroeste 0 -- -- 54
2019-09-22 15:00:00 24.3 9 Noroeste 20 Noroeste 0 -- -- 59
2019-09-22 14:00:00 22.6 4 Noroeste 27 Noroeste 0.2 -- -- 71
2019-09-22 13:00:00 19.7 17 Noroeste 28 Noroeste 0 -- -- 81
2019-09-22 12:00:00 22.7 16 Noroeste 28 Noroeste 0 -- -- 66
2019-09-22 11:00:00 23.5 17 Noroeste 28 Noroeste 0 -- -- 63
2019-09-22 10:00:00 21.1 10 Sudoeste 14 Sudoeste 0 -- -- 74
2019-09-22 09:00:00 19.6 4 Oeste 18 Sur 0 -- -- 84
2019-09-22 08:00:00 20.1 12 Sur 18 Sur 0 -- -- 76
2019-09-22 07:00:00 19.3 6 Sudoeste 14 Sur 0 -- -- 83
2019-09-22 06:00:00 19 7 Sur 21 Sur 0 -- -- 87
2019-09-22 05:00:00 18.9 10 Sur 21 Sur 0 -- -- 90
2019-09-22 04:00:00 19.2 10 Sudeste 28 Sudeste 0 -- -- 90
2019-09-22 03:00:00 19.5 5 Sudeste 26 Sur 0.2 -- -- 91
2019-09-22 02:00:00 19.7 10 Sur 27 Sur 0 -- -- 89
2019-09-22 01:00:00 19.6 13 Sudeste 28 Sudeste 0 -- -- 88
2019-09-22 00:00:00 20.2 11 Sur 24 Sur 0 -- -- 84
2019-09-21 23:00:00 19.4 7 Sudeste 28 Noroeste 2.4 -- -- 90
2019-09-21 22:00:00 19.6 5 Este 18 Este 5.6 -- -- 87
2019-09-21 21:00:00 23.5 2 Este 25 Sur 0 -- -- 59
2019-09-21 20:00:00 24.4 12 Sudeste 26 Sur 0 -- -- 52
2019-09-21 19:00:00 25.3 13 Sudeste 29 Sur 0 -- -- 50
2019-09-21 18:00:00 26.7 5 Sudeste 20 Sur 0 -- -- 48
2019-09-21 17:00:00 26.9 4 Sudeste 16 Este 0 -- -- 48
2019-09-21 16:00:00 27.6 5 Sudeste 25 Este 0 -- -- 48
2019-09-21 15:00:00 27.3 3 Noroeste 17 Oeste 0 -- -- 45
2019-09-21 14:00:00 26.1 9 Sudoeste 17 Sur 0.2 -- -- 49
2019-09-21 13:00:00 24.7 8 Sudoeste 25 Sur 0 -- -- 56
2019-09-21 12:00:00 22.3 12 Sur 29 Sur 0 -- -- 71
2019-09-21 11:00:00 20.2 10 Sudeste 30 Sur 0 -- -- 79
2019-09-21 10:00:00 19 9 Sur 27 Sur 0 -- -- 83
2019-09-21 09:00:00 17.7 6 Sur 18 Sur 0 -- -- 89
2019-09-21 08:00:00 17.7 4 Sudeste 19 Sur 0 -- -- 90
2019-09-21 07:00:00 17.9 9 Sudeste 32 Sudeste 0.2 -- -- 87
2019-09-21 06:00:00 17.9 8 Sudeste 22 Sur 1 -- -- 88
2019-09-21 05:00:00 18.5 8 Sudeste 27 Sur 0 -- -- 83
2019-09-21 04:00:00 18.5 10 Sudeste 30 Sur 1.8 -- -- 82
2019-09-21 03:00:00 18.9 12 Sur 39 Sur 0 -- -- 77
2019-09-21 02:00:00 19.1 17 Sur 35 Sur 0 -- -- 76
2019-09-21 01:00:00 20.2 23 Sur 45 Sur 0 -- -- 68
2019-09-21 00:00:00 20.1 21 Sur 42 Sur 0 -- -- 67
2019-09-20 23:00:00 21.1 22 Sur 36 Sur 0 -- -- 63
2019-09-20 22:00:00 22.1 20 Sur 42 Sur 0 -- -- 64
2019-09-20 21:00:00 23 16 Sur 35 Sur 0 -- -- 62
2019-09-20 20:00:00 23.6 16 Sur 35 Sur 0 -- -- 61
2019-09-20 19:00:00 25 20 Sur 37 Sur 0 -- -- 55
2019-09-20 18:00:00 26.2 16 Sur 35 Sur 0 -- -- 50
2019-09-20 17:00:00 26.7 9 Sudeste 37 Sudeste 0 -- -- 49
2019-09-20 16:00:00 27.6 7 Sudeste 35 Sudeste 0 -- -- 46
2019-09-20 15:00:00 27.1 9 Sudeste 35 Sur 0 -- -- 52
2019-09-20 14:00:00 26.7 12 Sudeste 34 Sudeste 0 -- -- 54
2019-09-20 13:00:00 24.7 8 Sudeste 29 Sudeste 0 -- -- 59
2019-09-20 12:00:00 24.4 7 Sudeste 28 Sudeste 0 -- -- 60
2019-09-20 11:00:00 22.2 12 Sudeste 27 Sur 0 -- -- 67
2019-09-20 10:00:00 21.2 15 Sur 28 Sur 0 -- -- 71
2019-09-20 09:00:00 18.5 14 Sur 22 Sur 0 -- -- 76
2019-09-20 08:00:00 18.2 5 Sudoeste 28 Sur 0 -- -- 77
2019-09-20 07:00:00 18.9 9 Sur 32 Sudeste 0 -- -- 72
2019-09-20 06:00:00 19.2 11 Sudeste 29 Sudeste 0 -- -- 71
2019-09-20 05:00:00 18.8 12 Sudeste 26 Sur 0 -- -- 75
2019-09-20 04:00:00 19.2 13 Sur 28 Sur 0 -- -- 73
2019-09-20 03:00:00 19.6 8 Sudeste 30 Sur 0 -- -- 72
2019-09-20 02:00:00 20 5 Este 23 Sur 0 -- -- 72
2019-09-20 01:00:00 21 11 Sudeste 39 Sur 0 -- -- 66
2019-09-20 00:00:00 21.4 12 Sudeste 29 Sudeste 0 -- -- 65
2019-09-19 23:00:00 23.7 10 Sur 24 Sur 0 -- -- 58
2019-09-19 22:00:00 24.5 16 Sur 26 Sur 0 -- -- 55
2019-09-19 21:00:00 25.1 7 Sur 18 Sudeste 0 -- -- 51
2019-09-19 20:00:00 26.4 8 Sudeste 19 Sur 0 -- -- 49
2019-09-19 19:00:00 28.5 6 Sudeste 23 Sur 0 -- -- 44
2019-09-19 18:00:00 29.4 7 Nordeste 15 Este 0 -- -- 41
2019-09-19 17:00:00 30.2 4 Oeste 14 Nordeste 0 -- -- 38
2019-09-19 16:00:00 30.2 8 Oeste 20 Oeste 0 -- -- 41
2019-09-19 15:00:00 29 6 Sudoeste 16 Noroeste 0 -- -- 44
2019-09-19 14:00:00 28 5 Noroeste 15 Nordeste 0 -- -- 49
2019-09-19 13:00:00 26.3 7 Noroeste 13 Norte 0 -- -- 54
2019-09-19 12:00:00 24.7 4 Noroeste 12 Nordeste 0 -- -- 59
2019-09-19 11:00:00 21.9 5 Nordeste 12 Nordeste 0 -- -- 66
2019-09-19 10:00:00 19.9 5 Nordeste 9 Nordeste 0 -- -- 75
2019-09-19 09:00:00 16.9 0 Calma 6 Norte 0 -- -- 87
2019-09-19 08:00:00 16.7 3 Nordeste 5 Nordeste 0 -- -- 86
2019-09-19 07:00:00 16.7 0 Calma 3 Oeste 0 -- -- 85
2019-09-19 06:00:00 16.4 0 Calma 5 Sur 0 -- -- 84
2019-09-19 05:00:00 16.9 3 Sudoeste 4 Sur 0 -- -- 84
2019-09-19 04:00:00 17.5 2 Norte 3 Norte 0 -- -- 83
2019-09-19 03:00:00 19.2 2 Oeste 7 Sudoeste 0 -- -- 76
2019-09-19 02:00:00 19 0 Calma 8 Noroeste 0 -- -- 77
2019-09-19 01:00:00 19.4 3 Nordeste 5 Nordeste 0 -- -- 78
2019-09-19 00:00:00 19.3 3 Sur 7 Sudoeste 0 -- -- 75
2019-09-18 23:00:00 19.5 4 Sur 8 Sudoeste 0 -- -- 68
2019-09-18 22:00:00 19.4 4 Sudoeste 7 Oeste 0 -- -- 64
2019-09-18 21:00:00 21.3 0 Calma 11 Noroeste 0 -- -- 58
2019-09-18 20:00:00 23.8 8 Norte 14 Noroeste 0 -- -- 47
2019-09-18 19:00:00 26.5 10 Oeste 20 Oeste 0 -- -- 43
2019-09-18 18:00:00 26.9 13 Noroeste 22 Oeste 0 -- -- 44
2019-09-18 17:00:00 26.3 9 Oeste 31 Oeste 0 -- -- 48
2019-09-18 16:00:00 27.7 6 Noroeste 18 Noroeste 0 -- -- 42
2019-09-18 15:00:00 26.9 7 Noroeste 19 Oeste 0 -- -- 45
2019-09-18 14:00:00 27.9 6 Noroeste 17 Noroeste 0 -- -- 46
2019-09-18 13:00:00 26.6 9 Noroeste 23 Noroeste 0 -- -- 50
2019-09-18 12:00:00 25.4 7 Oeste 17 Noroeste 0 -- -- 55
2019-09-18 11:00:00 23.7 8 Noroeste 14 Oeste 0 -- -- 62
2019-09-18 10:00:00 21.1 5 Sudoeste 10 Oeste 0 -- -- 69
2019-09-18 09:00:00 18.3 4 Sudoeste 9 Sur 0 -- -- 74
2019-09-18 08:00:00 17 4 Sur 8 Sudeste 0 -- -- 74
2019-09-18 07:00:00 16.2 4 Sur 9 Sur 0 -- -- 75
2019-09-18 06:00:00 17.8 5 Sur 6 Sur 0 -- -- 70
2019-09-18 05:00:00 18.6 0 Calma 9 Nordeste 0 -- -- 67
2019-09-18 04:00:00 20.5 3 Este 14 Nordeste 0 -- -- 61
2019-09-18 03:00:00 18.7 0 Calma 5 Este 0 -- -- 64
2019-09-18 02:00:00 21.7 5 Este 8 Sur 0 -- -- 54
2019-09-18 01:00:00 22 7 Oeste 35 Noroeste 0 -- -- 54
2019-09-18 00:00:00 21.6 4 Sudoeste 12 Sudoeste 0 -- -- 56
2019-09-17 23:00:00 21.8 4 Sur 9 Sudoeste 0 -- -- 56
2019-09-17 22:00:00 21.9 5 Sudoeste 8 Sur 0 -- -- 55
2019-09-17 21:00:00 22.9 3 Noroeste 4 Noroeste 0 -- -- 54